createdAt,value
2023-02-11T00:03:09.678Z,0.70
2023-02-11T00:08:16.923Z,0.60
2023-02-11T00:13:18.869Z,0.60
2023-02-11T00:18:20.858Z,0.40
2023-02-11T00:23:22.517Z,0.30
2023-02-11T00:28:24.641Z,0.40
2023-02-11T00:33:26.365Z,0.40
2023-02-11T00:38:27.994Z,0.40
2023-02-11T00:43:29.632Z,0.30
2023-02-11T00:48:31.310Z,0.30
2023-02-11T00:53:33.362Z,0.30
2023-02-11T00:58:35.441Z,0.20
2023-02-11T01:03:37.140Z,0.10
2023-02-11T01:08:39.430Z,0.10
2023-02-11T01:13:41.191Z,0.20
2023-02-11T01:18:44.330Z,0.20
2023-02-11T01:23:46.228Z,0.10
2023-02-11T01:28:48.040Z,0.10
2023-02-11T01:33:49.782Z,0.20
2023-02-11T01:38:51.433Z,0.10
2023-02-11T01:43:53.086Z,-0.10
2023-02-11T01:49:09.244Z,-0.30
2023-02-11T01:54:33.186Z,-0.20
2023-02-11T01:59:42.779Z,-0.10
2023-02-11T02:04:57.546Z,0.10
2023-02-11T02:10:04.514Z,0.00
2023-02-11T02:15:23.551Z,0.00
2023-02-11T02:20:25.167Z,-0.10
2023-02-11T02:25:47.857Z,-0.30
2023-02-11T02:30:49.664Z,-0.30
2023-02-11T02:36:10.634Z,-0.30
2023-02-11T02:41:16.647Z,-0.20
2023-02-11T02:46:22.659Z,-0.10
2023-02-11T02:52:04.324Z,0.00
2023-02-11T02:57:15.069Z,-0.10
2023-02-11T03:02:41.472Z,-0.20
2023-02-11T03:07:58.652Z,-0.20
2023-02-11T03:13:03.090Z,-0.30
2023-02-11T03:18:07.348Z,-0.30
2023-02-11T03:23:16.634Z,-0.30
2023-02-11T03:28:44.257Z,-0.50
2023-02-11T03:33:48.856Z,-0.50
2023-02-11T03:38:54.138Z,-0.50
2023-02-11T03:43:58.332Z,-0.40
2023-02-11T03:49:05.011Z,0.00
2023-02-11T03:54:11.985Z,0.10
2023-02-11T03:59:13.654Z,0.00
2023-02-11T04:04:15.816Z,0.00
2023-02-11T04:09:17.565Z,-0.30
2023-02-11T04:14:19.224Z,-0.60
2023-02-11T04:19:20.955Z,-0.60
2023-02-11T04:24:22.673Z,-0.50
2023-02-11T04:29:24.405Z,-0.50
2023-02-11T04:34:26.137Z,-0.10
2023-02-11T04:39:27.871Z,0.00
2023-02-11T04:44:29.603Z,0.20
2023-02-11T04:49:31.412Z,-0.10
2023-02-11T04:54:33.090Z,-0.30
2023-02-11T04:59:34.940Z,-0.10
2023-02-11T05:04:36.612Z,-0.20
2023-02-11T05:09:38.448Z,-0.10
2023-02-11T05:14:40.178Z,-0.30
2023-02-11T05:19:42.652Z,-0.40
2023-02-11T05:24:44.349Z,-0.40
2023-02-11T05:29:46.273Z,-0.40
2023-02-11T05:34:48.000Z,-0.60
2023-02-11T05:39:49.791Z,-0.50
2023-02-11T05:44:51.595Z,-0.50
2023-02-11T05:49:56.318Z,-0.40
2023-02-11T05:54:58.096Z,-0.10
2023-02-11T05:59:59.785Z,0.10
2023-02-11T06:05:01.942Z,0.20
2023-02-11T06:10:03.956Z,0.20
2023-02-11T06:15:06.627Z,0.00
2023-02-11T06:20:10.590Z,-0.40
2023-02-11T06:25:12.706Z,-0.20
2023-02-11T06:30:14.761Z,-0.10
2023-02-11T06:35:16.928Z,0.00
2023-02-11T06:40:18.742Z,-0.50
2023-02-11T06:45:20.687Z,-0.30
2023-02-11T06:50:22.398Z,0.00
2023-02-11T06:55:24.173Z,0.20
2023-02-11T07:00:26.590Z,0.30
2023-02-11T07:05:28.416Z,0.30
2023-02-11T07:10:30.231Z,-0.20
2023-02-11T07:15:32.132Z,-0.10
2023-02-11T07:20:33.813Z,0.00
2023-02-11T07:25:36.240Z,0.30
2023-02-11T07:30:37.938Z,0.30
2023-02-11T07:35:42.350Z,0.50
2023-02-11T07:40:44.389Z,0.70
2023-02-11T07:45:46.101Z,0.90
2023-02-11T07:50:47.863Z,1.20
2023-02-11T07:55:50.053Z,1.30
2023-02-11T08:00:52.056Z,1.40
2023-02-11T08:05:53.807Z,1.60
2023-02-11T08:10:55.517Z,1.70
2023-02-11T08:15:58.010Z,2.10
2023-02-11T08:21:10.291Z,2.40
2023-02-11T08:26:17.590Z,2.20
2023-02-11T08:31:28.375Z,2.40
2023-02-11T08:36:33.122Z,2.40
2023-02-11T08:41:35.626Z,2.70
2023-02-11T08:46:37.398Z,3.20
2023-02-11T08:51:39.128Z,3.40
2023-02-11T08:56:40.962Z,4.00
2023-02-11T09:01:44.275Z,5.40
2023-02-11T09:06:46.246Z,6.90
2023-02-11T09:11:48.278Z,7.80
2023-02-11T09:16:51.818Z,7.40
2023-02-11T09:21:53.666Z,8.10
2023-02-11T09:26:55.386Z,8.60
2023-02-11T09:31:57.329Z,9.00
2023-02-11T09:36:59.094Z,9.50
2023-02-11T09:42:08.806Z,10.30
2023-02-11T09:47:33.041Z,10.90
2023-02-11T09:52:42.213Z,11.60
2023-02-11T09:57:44.008Z,12.70
2023-02-11T10:03:24.259Z,14.40
2023-02-11T10:08:41.503Z,14.60
2023-02-11T10:13:46.277Z,14.50
2023-02-11T10:19:08.293Z,16.80
2023-02-11T10:24:14.040Z,16.40
2023-02-11T10:29:36.386Z,17.40
2023-02-11T10:34:41.860Z,18.10
2023-02-11T10:39:43.821Z,17.70
2023-02-11T10:45:00.822Z,18.80
2023-02-11T10:50:28.261Z,18.40
2023-02-11T10:55:30.070Z,19.80
2023-02-11T11:00:40.613Z,18.60
2023-02-11T11:05:57.307Z,19.10
2023-02-11T11:11:07.213Z,20.40
2023-02-11T11:16:12.130Z,19.80
2023-02-11T11:21:26.540Z,20.20
2023-02-11T11:26:43.356Z,19.00
2023-02-11T11:32:11.389Z,19.60
2023-02-11T11:37:14.934Z,18.60
2023-02-11T11:42:27.081Z,18.80
2023-02-11T11:47:38.335Z,19.40
2023-02-11T11:52:54.212Z,20.00
2023-02-11T11:57:55.900Z,20.10
2023-02-11T12:03:09.805Z,19.40
2023-02-11T12:08:44.060Z,19.80
2023-02-11T12:14:15.945Z,20.40
2023-02-11T12:19:24.790Z,20.60
2023-02-11T12:24:50.130Z,22.00
2023-02-11T12:30:10.736Z,22.50
2023-02-11T12:35:17.890Z,22.90
2023-02-11T12:40:33.978Z,22.20
2023-02-11T12:46:26.881Z,23.60
2023-02-11T12:52:14.348Z,23.90
2023-02-11T12:57:23.372Z,24.00
2023-02-11T13:02:29.578Z,24.70
2023-02-11T13:07:39.293Z,22.60
2023-02-11T13:13:03.618Z,23.40
2023-02-11T13:18:40.083Z,23.10
2023-02-11T13:24:05.464Z,22.70
2023-02-11T13:29:58.432Z,24.20
2023-02-11T13:35:00.193Z,24.40
2023-02-11T13:40:06.257Z,24.70
2023-02-11T13:45:33.380Z,24.50
2023-02-11T13:50:46.603Z,24.20
2023-02-11T13:56:04.667Z,24.00
2023-02-11T14:01:07.749Z,23.90
2023-02-11T14:06:28.177Z,23.80
2023-02-11T14:11:44.672Z,22.60
2023-02-11T14:16:58.927Z,22.90
2023-02-11T14:22:13.553Z,22.80
2023-02-11T14:27:31.381Z,23.40
2023-02-11T14:33:16.861Z,22.70
2023-02-11T14:38:42.993Z,22.50
2023-02-11T14:43:49.416Z,22.00
2023-02-11T14:48:55.269Z,21.30
2023-02-11T14:54:25.198Z,21.20
2023-02-11T14:59:26.918Z,20.50
2023-02-11T15:04:31.723Z,19.80
2023-02-11T15:09:40.836Z,19.10
2023-02-11T15:14:47.974Z,18.70
2023-02-11T15:19:53.892Z,18.40
2023-02-11T15:25:23.253Z,18.00
2023-02-11T15:30:34.140Z,17.70
2023-02-11T15:35:40.800Z,17.20
2023-02-11T15:40:53.452Z,16.90
2023-02-11T15:46:00.020Z,16.40
2023-02-11T15:51:25.294Z,15.20
2023-02-11T15:56:32.989Z,13.40
2023-02-11T16:01:36.360Z,12.50
2023-02-11T16:06:40.627Z,11.60
2023-02-11T16:11:48.159Z,11.10
2023-02-11T16:16:52.969Z,11.00
2023-02-11T16:21:58.125Z,10.50
2023-02-11T16:27:15.958Z,10.00
2023-02-11T16:32:27.381Z,9.40
2023-02-11T16:37:29.098Z,8.90
2023-02-11T16:42:30.762Z,8.70
2023-02-11T16:47:34.667Z,8.30
2023-02-11T16:52:37.210Z,7.80
2023-02-11T16:57:38.966Z,7.60
2023-02-11T17:02:40.934Z,7.40
2023-02-11T17:07:42.667Z,7.10
2023-02-11T17:12:44.444Z,6.80
2023-02-11T17:17:46.168Z,6.50
2023-02-11T17:22:47.830Z,6.50
2023-02-11T17:27:52.490Z,5.70
2023-02-11T17:32:54.449Z,5.40
2023-02-11T17:37:57.956Z,5.10
2023-02-11T17:42:59.592Z,4.80
2023-02-11T17:48:01.526Z,4.50
2023-02-11T17:53:03.292Z,4.30
2023-02-11T17:58:05.095Z,4.30
2023-02-11T18:03:06.728Z,4.50
2023-02-11T18:08:08.669Z,4.60
2023-02-11T18:13:10.361Z,4.50
2023-02-11T18:18:12.142Z,4.30
2023-02-11T18:23:13.912Z,4.30
2023-02-11T18:28:15.627Z,4.50
2023-02-11T18:33:17.292Z,4.30
2023-02-11T18:38:19.171Z,4.30
2023-02-11T18:43:20.826Z,4.30
2023-02-11T18:48:22.548Z,3.70
2023-02-11T18:53:25.140Z,3.60
2023-02-11T18:58:26.816Z,3.70
2023-02-11T19:03:28.513Z,3.70
2023-02-11T19:08:30.161Z,3.70
2023-02-11T19:13:31.830Z,3.60
2023-02-11T19:18:33.631Z,3.50
2023-02-11T19:23:37.078Z,3.40
2023-02-11T19:28:39.199Z,3.30
2023-02-11T19:33:40.880Z,3.40
2023-02-11T19:38:44.527Z,3.40
2023-02-11T19:43:47.798Z,2.90
2023-02-11T19:48:49.942Z,3.00
2023-02-11T19:53:51.654Z,2.90
2023-02-11T19:58:53.292Z,2.80
2023-02-11T20:03:57.263Z,2.80
2023-02-11T20:09:06.515Z,2.90
2023-02-11T20:14:10.459Z,2.90
2023-02-11T20:19:16.798Z,2.70
2023-02-11T20:24:19.601Z,2.60
2023-02-11T20:29:21.510Z,2.70
2023-02-11T20:34:24.896Z,2.60
2023-02-11T20:39:26.915Z,2.70
2023-02-11T20:44:28.615Z,2.70
2023-02-11T20:49:30.564Z,2.70
2023-02-11T20:54:32.296Z,2.80
2023-02-11T20:59:33.946Z,2.70
2023-02-11T21:04:35.616Z,2.60
2023-02-11T21:09:38.148Z,2.60
2023-02-11T21:14:39.819Z,2.60
2023-02-11T21:19:41.725Z,2.40
2023-02-11T21:24:43.586Z,2.50
2023-02-11T21:29:53.866Z,2.60
2023-02-11T21:34:56.130Z,2.50
2023-02-11T21:39:57.828Z,2.40
2023-02-11T21:44:59.515Z,2.10
2023-02-11T21:50:01.155Z,2.50
2023-02-11T21:55:03.016Z,2.60
2023-02-11T22:00:06.166Z,2.50
2023-02-11T22:05:07.992Z,2.40
2023-02-11T22:10:10.403Z,2.50
2023-02-11T22:15:12.162Z,2.50
2023-02-11T22:20:13.880Z,2.30
2023-02-11T22:25:16.093Z,2.40
2023-02-11T22:30:17.887Z,2.50
2023-02-11T22:35:19.581Z,2.30
2023-02-11T22:40:21.300Z,2.40
2023-02-11T22:45:23.139Z,2.50
2023-02-11T22:50:24.842Z,2.30
2023-02-11T22:55:26.817Z,2.30
2023-02-11T23:00:35.132Z,2.40
2023-02-11T23:05:41.380Z,2.40
2023-02-11T23:10:43.155Z,2.20
2023-02-11T23:15:46.067Z,2.20
2023-02-11T23:20:47.819Z,2.10
2023-02-11T23:25:49.469Z,2.20
2023-02-11T23:30:51.239Z,2.00
2023-02-11T23:35:53.291Z,1.90
2023-02-11T23:40:55.213Z,1.70
2023-02-11T23:45:57.163Z,1.70
2023-02-11T23:50:59.127Z,1.80
2023-02-11T23:56:00.949Z,1.90
